createdAt,value
2024-01-11T00:00:46.556Z,23.87
2024-01-11T00:03:14.549Z,18.08
2024-01-11T00:05:43.220Z,21.73
2024-01-11T00:08:11.969Z,15.65
2024-01-11T00:10:39.873Z,18.55
2024-01-11T00:13:07.716Z,22.93
2024-01-11T00:15:35.850Z,29.20
2024-01-11T00:18:04.039Z,18.25
2024-01-11T00:20:32.077Z,22.00
2024-01-11T00:22:59.925Z,19.80
2024-01-11T00:25:27.790Z,19.67
2024-01-11T00:27:55.543Z,20.92
2024-01-11T00:30:24.732Z,19.70
2024-01-11T00:32:52.806Z,23.10
2024-01-11T00:35:20.973Z,22.50
2024-01-11T00:37:48.799Z,23.77
2024-01-11T00:40:16.621Z,18.10
2024-01-11T00:42:44.521Z,20.85
2024-01-11T00:45:12.389Z,23.50
2024-01-11T00:47:40.227Z,18.65
2024-01-11T00:50:08.377Z,21.92
2024-01-11T00:52:36.184Z,18.15
2024-01-11T00:55:04.172Z,22.95
2024-01-11T00:57:33.188Z,23.20
2024-01-11T01:00:00.979Z,20.45
2024-01-11T01:02:29.053Z,23.50
2024-01-11T01:04:57.040Z,21.60
2024-01-11T01:07:24.858Z,22.02
2024-01-11T01:09:52.718Z,23.10
2024-01-11T01:12:20.556Z,25.98
2024-01-11T01:14:48.498Z,22.65
2024-01-11T01:17:17.283Z,25.40
2024-01-11T01:19:45.767Z,24.33
2024-01-11T01:22:13.639Z,24.65
2024-01-11T01:24:41.516Z,23.80
2024-01-11T01:27:09.338Z,25.45
2024-01-11T01:29:38.603Z,21.03
2024-01-11T01:32:06.915Z,23.15
2024-01-11T01:34:34.822Z,24.30
2024-01-11T01:37:02.707Z,23.30
2024-01-11T01:39:30.492Z,23.98
2024-01-11T01:41:58.335Z,26.53
2024-01-11T01:44:26.250Z,23.80
2024-01-11T01:46:54.511Z,24.13
2024-01-11T01:49:24.053Z,25.93
2024-01-11T01:51:52.505Z,23.65
2024-01-11T01:54:20.489Z,27.67
2024-01-11T01:56:48.487Z,22.95
2024-01-11T01:59:16.931Z,26.70
2024-01-11T02:01:44.769Z,25.57
2024-01-11T02:04:12.571Z,25.15
2024-01-11T02:06:40.430Z,26.75
2024-01-11T02:09:09.427Z,26.07
2024-01-11T02:11:37.311Z,34.78
2024-01-11T02:14:05.156Z,44.90
2024-01-11T02:16:33.130Z,47.10
2024-01-11T02:19:01.015Z,33.58
2024-01-11T02:21:28.875Z,36.37
2024-01-11T02:24:15.533Z,32.78
2024-01-11T02:27:02.120Z,34.33
2024-01-11T02:29:30.112Z,28.33
2024-01-11T02:31:58.221Z,30.77
2024-01-11T02:34:28.666Z,33.43
2024-01-11T02:36:56.542Z,33.55
2024-01-11T02:39:24.612Z,31.63
2024-01-11T02:41:52.882Z,25.90
2024-01-11T02:44:20.835Z,29.13
2024-01-11T02:46:48.722Z,27.23
2024-01-11T02:49:17.418Z,26.88
2024-01-11T02:51:45.319Z,27.25
2024-01-11T02:54:13.146Z,33.67
2024-01-11T02:56:41.128Z,34.80
2024-01-11T02:59:10.379Z,37.10
2024-01-11T03:01:38.231Z,27.13
2024-01-11T03:04:06.295Z,28.27
2024-01-11T03:06:34.326Z,32.33
2024-01-11T03:09:02.161Z,430.42
2024-01-11T03:11:30.014Z,394.30
2024-01-11T03:13:57.935Z,124.43
2024-01-11T03:16:25.944Z,38.47
2024-01-11T03:18:53.886Z,36.23
2024-01-11T03:21:21.783Z,45.53
2024-01-11T03:23:49.657Z,35.30
2024-01-11T03:26:17.907Z,57.27
2024-01-11T03:28:45.931Z,46.97
2024-01-11T03:31:13.802Z,40.08
2024-01-11T03:33:41.812Z,35.20
2024-01-11T03:36:12.653Z,43.90
2024-01-11T03:38:40.616Z,47.88
2024-01-11T03:41:11.677Z,41.92
2024-01-11T03:43:39.728Z,38.28
2024-01-11T03:46:07.670Z,47.77
2024-01-11T03:48:37.453Z,68.55
2024-01-11T03:51:07.987Z,31.95
2024-01-11T03:53:39.290Z,33.63
2024-01-11T03:56:08.259Z,36.13
2024-01-11T03:58:40.672Z,36.17
2024-01-11T04:01:11.430Z,39.25
2024-01-11T04:03:39.770Z,39.00
2024-01-11T04:06:08.051Z,35.70
2024-01-11T04:08:36.194Z,36.22
2024-01-11T04:11:07.674Z,35.83
2024-01-11T04:13:35.571Z,36.88
2024-01-11T04:16:07.322Z,36.63
2024-01-11T04:18:35.405Z,34.57
2024-01-11T04:21:03.339Z,34.33
2024-01-11T04:23:31.360Z,30.48
2024-01-11T04:25:59.340Z,32.87
2024-01-11T04:28:27.217Z,32.35
2024-01-11T04:30:55.081Z,30.05
2024-01-11T04:33:23.234Z,33.87
2024-01-11T04:35:51.342Z,31.48
2024-01-11T04:38:19.278Z,35.35
2024-01-11T04:40:47.276Z,31.67
2024-01-11T04:43:17.725Z,31.50
2024-01-11T04:45:45.702Z,32.37
2024-01-11T04:48:13.710Z,31.95
2024-01-11T04:50:41.718Z,32.92
2024-01-11T04:53:10.406Z,33.33
2024-01-11T04:55:38.788Z,36.05
2024-01-11T04:58:07.926Z,39.15
2024-01-11T05:00:35.783Z,33.47
2024-01-11T05:03:03.662Z,31.17
2024-01-11T05:05:34.733Z,30.53
2024-01-11T05:08:03.114Z,34.83
2024-01-11T05:10:31.085Z,38.95
2024-01-11T05:12:58.932Z,33.33
2024-01-11T05:15:26.884Z,41.20
2024-01-11T05:17:54.875Z,37.63
2024-01-11T05:20:22.882Z,35.57
2024-01-11T05:22:50.720Z,31.65
2024-01-11T05:25:18.602Z,36.60
2024-01-11T05:27:46.418Z,59.10
2024-01-11T05:30:14.754Z,51.20
2024-01-11T05:32:42.802Z,68.82
2024-01-11T05:35:11.656Z,61.28
2024-01-11T05:37:39.518Z,67.10
2024-01-11T05:40:09.068Z,59.73
2024-01-11T05:42:38.743Z,51.50
2024-01-11T05:45:08.100Z,52.30
2024-01-11T05:47:37.281Z,42.30
2024-01-11T05:50:05.351Z,41.60
2024-01-11T05:52:33.260Z,33.95
2024-01-11T05:55:01.280Z,30.58
2024-01-11T05:57:29.144Z,33.30
2024-01-11T05:59:57.308Z,31.67
2024-01-11T06:02:25.185Z,34.20
2024-01-11T06:04:53.092Z,30.50
2024-01-11T06:07:23.317Z,31.10
2024-01-11T06:09:51.149Z,27.85
2024-01-11T06:12:19.008Z,30.48
2024-01-11T06:14:46.897Z,26.77
2024-01-11T06:17:15.046Z,29.48
2024-01-11T06:19:43.315Z,32.95
2024-01-11T06:22:11.194Z,33.70
2024-01-11T06:25:05.241Z,33.40
2024-01-11T06:27:44.427Z,29.35
2024-01-11T06:30:12.738Z,32.83
2024-01-11T06:32:40.899Z,32.22
2024-01-11T06:35:09.107Z,32.45
2024-01-11T06:37:37.136Z,30.20
2024-01-11T06:40:05.142Z,26.80
2024-01-11T06:42:33.087Z,27.58
2024-01-11T06:45:01.038Z,29.00
2024-01-11T06:47:29.050Z,32.43
2024-01-11T06:49:56.990Z,31.83
2024-01-11T06:52:25.004Z,25.95
2024-01-11T06:54:52.896Z,24.38
2024-01-11T06:57:20.800Z,27.02
2024-01-11T06:59:50.143Z,26.92
2024-01-11T07:02:19.612Z,25.67
2024-01-11T07:04:47.573Z,29.65
2024-01-11T07:07:15.393Z,25.17
2024-01-11T07:09:43.170Z,31.67
2024-01-11T07:12:10.968Z,70.88
2024-01-11T07:14:38.940Z,91.43
2024-01-11T07:17:06.985Z,69.85
2024-01-11T07:19:34.813Z,74.25
2024-01-11T07:22:02.640Z,53.97
2024-01-11T07:24:38.475Z,48.35
2024-01-11T07:27:07.020Z,42.47
2024-01-11T07:29:35.207Z,33.93
2024-01-11T07:32:05.609Z,39.28
2024-01-11T07:34:34.459Z,33.42
2024-01-11T07:37:02.450Z,34.35
2024-01-11T07:39:32.244Z,24.97
2024-01-11T07:42:00.141Z,28.20
2024-01-11T07:44:28.049Z,23.52
2024-01-11T07:47:01.033Z,28.00
2024-01-11T07:49:30.192Z,31.88
2024-01-11T07:51:58.089Z,29.60
2024-01-11T07:54:25.952Z,27.13
2024-01-11T07:56:53.979Z,31.60
2024-01-11T07:59:21.955Z,29.38
2024-01-11T08:01:49.791Z,26.08
2024-01-11T08:04:17.604Z,31.80
2024-01-11T08:06:45.561Z,26.83
2024-01-11T08:09:14.802Z,27.87
2024-01-11T08:11:50.851Z,31.73
2024-01-11T08:14:19.882Z,27.13
2024-01-11T08:16:47.739Z,23.87
2024-01-11T08:19:15.648Z,25.65
2024-01-11T08:21:44.726Z,27.30
2024-01-11T08:24:12.693Z,27.50
2024-01-11T08:26:40.774Z,36.10
2024-01-11T08:29:10.384Z,26.90
2024-01-11T08:31:40.220Z,29.13
2024-01-11T08:34:08.658Z,33.17
2024-01-11T08:36:36.607Z,27.88
2024-01-11T08:39:06.935Z,23.50
2024-01-11T08:41:35.294Z,24.48
2024-01-11T08:44:04.097Z,27.13
2024-01-11T08:46:32.184Z,32.30
2024-01-11T08:49:00.312Z,48.83
2024-01-11T08:51:28.267Z,35.10
2024-01-11T08:53:56.678Z,49.97
2024-01-11T08:56:24.673Z,32.93
2024-01-11T08:58:55.629Z,39.20
2024-01-11T09:01:23.754Z,43.30
2024-01-11T09:03:51.671Z,43.17
2024-01-11T09:06:19.751Z,41.92
2024-01-11T09:08:47.666Z,46.15
2024-01-11T09:11:17.973Z,52.90
2024-01-11T09:13:45.770Z,38.83
2024-01-11T09:16:18.164Z,44.38
2024-01-11T09:18:46.367Z,41.67
2024-01-11T09:21:14.442Z,43.40
2024-01-11T09:23:42.362Z,32.67
2024-01-11T09:26:10.433Z,26.23
2024-01-11T09:28:38.300Z,37.33
2024-01-11T09:31:06.342Z,29.63
2024-01-11T09:33:34.838Z,34.25
2024-01-11T09:36:02.849Z,20.77
2024-01-11T09:38:31.486Z,20.20
2024-01-11T09:41:09.056Z,21.02
2024-01-11T09:43:38.224Z,21.93
2024-01-11T09:46:06.707Z,32.88
2024-01-11T09:48:35.423Z,33.78
2024-01-11T09:51:06.832Z,40.73
2024-01-11T09:53:34.948Z,34.17
2024-01-11T09:56:02.953Z,47.53
2024-01-11T09:58:30.834Z,75.50
2024-01-11T10:01:00.753Z,53.77
2024-01-11T10:03:28.846Z,44.10
2024-01-11T10:05:57.729Z,47.25
2024-01-11T10:08:26.269Z,48.63
2024-01-11T10:10:54.761Z,40.03
2024-01-11T10:13:27.762Z,37.53
2024-01-11T10:15:55.760Z,40.53
2024-01-11T10:18:25.083Z,46.00
2024-01-11T10:20:53.893Z,89.25
2024-01-11T10:23:21.933Z,88.88
2024-01-11T10:25:49.832Z,48.90
2024-01-11T10:28:19.537Z,39.75
2024-01-11T10:30:50.357Z,56.45
2024-01-11T10:33:21.817Z,35.33
2024-01-11T10:35:51.610Z,36.35
2024-01-11T10:38:20.622Z,29.67
2024-01-11T10:40:48.442Z,29.17
2024-01-11T10:43:18.072Z,29.10
2024-01-11T10:45:50.272Z,18.33
2024-01-11T10:48:18.274Z,38.90
2024-01-11T10:50:46.912Z,38.60
2024-01-11T10:53:31.751Z,32.67
2024-01-11T10:56:00.392Z,29.48
2024-01-11T10:58:28.851Z,34.67
2024-01-11T11:00:56.878Z,29.92
2024-01-11T11:03:27.699Z,34.88
2024-01-11T11:05:58.798Z,37.23
2024-01-11T11:08:28.300Z,45.25
2024-01-11T11:10:59.496Z,38.03
2024-01-11T11:13:27.614Z,28.80
2024-01-11T11:16:00.821Z,28.63
2024-01-11T11:18:29.921Z,22.95
2024-01-11T11:20:57.744Z,23.13
2024-01-11T11:23:25.592Z,37.67
2024-01-11T11:25:53.491Z,41.80
2024-01-11T11:28:21.316Z,41.35
2024-01-11T11:30:50.303Z,45.40
2024-01-11T11:33:22.241Z,47.90
2024-01-11T11:35:50.896Z,50.38
2024-01-11T11:38:25.764Z,63.30
2024-01-11T11:40:54.522Z,34.67
2024-01-11T11:43:22.796Z,52.13
2024-01-11T11:45:51.471Z,56.28
2024-01-11T11:48:31.768Z,55.87
2024-01-11T11:51:20.993Z,56.30
2024-01-11T11:53:50.008Z,54.75
2024-01-11T11:56:21.409Z,36.00
2024-01-11T11:58:50.967Z,43.03
2024-01-11T12:01:19.043Z,59.67
2024-01-11T12:03:50.439Z,51.83
2024-01-11T12:06:19.354Z,33.53
2024-01-11T12:08:48.369Z,29.35
2024-01-11T12:11:19.404Z,34.80
2024-01-11T12:13:47.269Z,39.07
2024-01-11T12:16:15.137Z,59.53
2024-01-11T12:18:43.221Z,35.45
2024-01-11T12:21:11.136Z,42.10
2024-01-11T12:23:40.531Z,75.63
2024-01-11T12:26:14.241Z,50.53
2024-01-11T12:28:43.404Z,50.90
2024-01-11T12:31:11.755Z,51.70
2024-01-11T12:33:40.285Z,41.50
2024-01-11T12:36:09.776Z,51.75
2024-01-11T12:38:37.875Z,24.73
2024-01-11T12:41:07.079Z,50.20
2024-01-11T12:43:35.915Z,59.05
2024-01-11T12:46:04.252Z,51.50
2024-01-11T12:48:32.276Z,38.90
2024-01-11T12:51:10.593Z,44.28
2024-01-11T12:53:49.827Z,68.05
2024-01-11T12:56:18.235Z,69.30
2024-01-11T12:58:48.453Z,46.53
2024-01-11T13:01:16.528Z,33.53
2024-01-11T13:03:47.449Z,35.27
2024-01-11T13:06:16.946Z,27.95
2024-01-11T13:08:45.200Z,26.42
2024-01-11T13:11:15.515Z,30.07
2024-01-11T13:13:43.842Z,22.95
2024-01-11T13:16:15.748Z,24.52
2024-01-11T13:18:43.885Z,27.55
2024-01-11T13:21:13.736Z,20.87
2024-01-11T13:23:41.778Z,19.70
2024-01-11T13:26:10.241Z,19.35
2024-01-11T13:28:38.061Z,29.20
2024-01-11T13:31:06.111Z,19.40
2024-01-11T13:33:34.002Z,29.02
2024-01-11T13:36:02.006Z,17.57
2024-01-11T13:38:30.935Z,27.30
2024-01-11T13:40:58.885Z,16.92
2024-01-11T13:43:26.708Z,30.02
2024-01-11T13:45:55.814Z,56.87
2024-01-11T13:48:23.865Z,50.75
2024-01-11T13:50:51.920Z,43.85
2024-01-11T13:53:19.873Z,29.40
2024-01-11T13:55:47.974Z,22.38
2024-01-11T13:58:16.784Z,26.45
2024-01-11T14:00:48.049Z,18.33
2024-01-11T14:03:17.101Z,26.23
2024-01-11T14:05:45.027Z,25.65
2024-01-11T14:08:13.061Z,23.70
2024-01-11T14:10:41.072Z,20.60
2024-01-11T14:13:08.958Z,35.58
2024-01-11T14:15:38.024Z,17.45
2024-01-11T14:18:09.369Z,19.70
2024-01-11T14:20:37.557Z,20.60
2024-01-11T14:23:06.959Z,26.67
2024-01-11T14:25:34.786Z,29.87
2024-01-11T14:28:02.640Z,29.23
2024-01-11T14:30:30.544Z,26.33
2024-01-11T14:32:58.533Z,21.38
2024-01-11T14:35:26.751Z,20.47
2024-01-11T14:37:55.486Z,26.85
2024-01-11T14:40:25.096Z,17.23
2024-01-11T14:42:53.636Z,21.27
2024-01-11T14:45:21.457Z,30.58
2024-01-11T14:47:49.729Z,23.58
2024-01-11T14:50:17.829Z,24.57
2024-01-11T14:52:45.564Z,19.52
2024-01-11T14:55:13.456Z,24.23
2024-01-11T14:57:41.662Z,18.30
2024-01-11T15:00:11.710Z,19.47
2024-01-11T15:02:40.027Z,24.17
2024-01-11T15:05:08.526Z,25.05
2024-01-11T15:07:36.530Z,23.70
2024-01-11T15:10:04.526Z,23.98
2024-01-11T15:12:33.285Z,22.65
2024-01-11T15:15:03.821Z,26.47
2024-01-11T15:17:33.394Z,23.40
2024-01-11T15:20:02.328Z,20.08
2024-01-11T15:22:34.644Z,19.27
2024-01-11T15:25:04.013Z,20.07
2024-01-11T15:27:33.202Z,30.13
2024-01-11T15:30:01.190Z,19.52
2024-01-11T15:32:29.332Z,19.10
2024-01-11T15:34:57.576Z,19.58
2024-01-11T15:37:27.194Z,22.08
2024-01-11T15:39:55.437Z,26.57
2024-01-11T15:42:25.254Z,16.48
2024-01-11T15:44:53.367Z,19.35
2024-01-11T15:47:21.308Z,19.95
2024-01-11T15:49:49.206Z,14.40
2024-01-11T15:52:17.051Z,27.05
2024-01-11T15:54:45.055Z,23.73
2024-01-11T15:57:13.949Z,16.50
2024-01-11T15:59:43.203Z,25.30
2024-01-11T16:02:13.002Z,30.83
2024-01-11T16:04:42.557Z,24.17
2024-01-11T16:07:10.477Z,17.92
2024-01-11T16:09:38.325Z,23.83
2024-01-11T16:12:07.809Z,21.73
2024-01-11T16:14:35.755Z,28.57
2024-01-11T16:17:05.095Z,17.95
2024-01-11T16:19:35.180Z,10.82
2024-01-11T16:22:03.323Z,13.10
2024-01-11T16:24:31.399Z,18.95
2024-01-11T16:27:00.516Z,15.55
2024-01-11T16:29:28.427Z,22.80
2024-01-11T16:31:56.302Z,19.27
2024-01-11T16:34:25.209Z,17.80
2024-01-11T16:36:53.164Z,13.95
2024-01-11T16:39:21.422Z,22.47
2024-01-11T16:41:49.374Z,19.50
2024-01-11T16:44:17.880Z,20.15
2024-01-11T16:46:46.070Z,23.17
2024-01-11T16:49:14.793Z,22.27
2024-01-11T16:51:49.414Z,17.95
2024-01-11T16:54:19.808Z,20.67
2024-01-11T16:56:51.583Z,12.88
2024-01-11T16:59:19.650Z,21.10
2024-01-11T17:01:47.526Z,21.75
2024-01-11T17:04:15.915Z,54.47
2024-01-11T17:06:43.994Z,28.45
2024-01-11T17:09:11.970Z,33.85
2024-01-11T17:11:42.059Z,18.73
2024-01-11T17:14:10.329Z,16.55
2024-01-11T17:16:38.323Z,12.25
2024-01-11T17:19:06.243Z,14.03
2024-01-11T17:21:34.189Z,17.05
2024-01-11T17:24:02.999Z,11.75
2024-01-11T17:26:31.112Z,16.17
2024-01-11T17:28:59.250Z,11.40
2024-01-11T17:31:27.274Z,15.38
2024-01-11T17:33:55.502Z,16.40
2024-01-11T17:36:23.373Z,14.60
2024-01-11T17:38:52.684Z,17.67
2024-01-11T17:41:20.760Z,10.68
2024-01-11T17:43:49.179Z,15.87
2024-01-11T17:46:29.426Z,16.52
2024-01-11T17:48:57.792Z,14.75
2024-01-11T17:51:26.258Z,12.90
2024-01-11T17:53:54.580Z,10.67
2024-01-11T17:56:22.906Z,18.15
2024-01-11T17:58:50.898Z,13.23
2024-01-11T18:01:25.961Z,10.33
2024-01-11T18:03:54.007Z,8.90
2024-01-11T18:06:22.005Z,11.00
2024-01-11T18:08:50.068Z,10.23
2024-01-11T18:11:18.477Z,12.00
2024-01-11T18:13:46.659Z,8.20
2024-01-11T18:16:14.707Z,11.25
2024-01-11T18:18:48.148Z,9.87
2024-01-11T18:21:18.606Z,8.02
2024-01-11T18:23:46.816Z,14.13
2024-01-11T18:26:15.306Z,15.83
2024-01-11T18:28:43.283Z,7.47
2024-01-11T18:31:14.860Z,18.42
2024-01-11T18:33:44.730Z,14.30
2024-01-11T18:36:13.603Z,16.20
2024-01-11T18:38:42.893Z,14.38
2024-01-11T18:41:10.994Z,16.60
2024-01-11T18:43:38.905Z,13.97
2024-01-11T18:46:07.103Z,14.32
2024-01-11T18:48:38.088Z,16.30
2024-01-11T18:51:08.111Z,14.60
2024-01-11T18:53:36.152Z,15.00
2024-01-11T18:56:04.757Z,10.00
2024-01-11T18:58:36.527Z,7.87
2024-01-11T19:01:09.427Z,14.68
2024-01-11T19:03:43.406Z,14.32
2024-01-11T19:06:11.711Z,9.10
2024-01-11T19:08:40.124Z,12.40
2024-01-11T19:11:08.345Z,13.90
2024-01-11T19:13:36.422Z,11.93
2024-01-11T19:16:04.545Z,14.80
2024-01-11T19:18:32.710Z,11.00
2024-01-11T19:21:00.786Z,15.98
2024-01-11T19:23:28.766Z,12.67
2024-01-11T19:25:59.519Z,16.42
2024-01-11T19:28:27.851Z,10.82
2024-01-11T19:30:55.982Z,12.35
2024-01-11T19:33:24.952Z,9.83
2024-01-11T19:35:57.570Z,16.17
2024-01-11T19:38:25.714Z,10.50
2024-01-11T19:40:53.989Z,19.70
2024-01-11T19:43:22.673Z,11.50
2024-01-11T19:45:50.969Z,8.50
2024-01-11T19:48:19.448Z,18.90
2024-01-11T19:50:48.868Z,8.20
2024-01-11T19:53:17.366Z,13.38
2024-01-11T19:55:46.116Z,7.15
2024-01-11T19:58:15.206Z,9.17
2024-01-11T20:00:46.130Z,11.02
2024-01-11T20:03:14.814Z,13.98
2024-01-11T20:05:43.032Z,10.73
2024-01-11T20:08:11.991Z,7.93
2024-01-11T20:10:40.512Z,14.00
2024-01-11T20:13:08.409Z,18.37
2024-01-11T20:15:40.052Z,11.40
2024-01-11T20:18:10.021Z,7.43
2024-01-11T20:20:38.470Z,11.80
2024-01-11T20:23:06.580Z,12.73
2024-01-11T20:25:34.829Z,11.57
2024-01-11T20:28:02.724Z,11.45
2024-01-11T20:30:30.790Z,20.07
2024-01-11T20:32:58.796Z,21.98
2024-01-11T20:35:27.434Z,18.55
2024-01-11T20:37:55.920Z,14.27
2024-01-11T20:40:23.841Z,21.73
2024-01-11T20:42:53.163Z,23.77
2024-01-11T20:45:21.107Z,20.15
2024-01-11T20:47:49.229Z,16.60
2024-01-11T20:50:17.243Z,11.30
2024-01-11T20:52:45.218Z,32.58
2024-01-11T20:55:13.315Z,213.47
2024-01-11T20:57:41.185Z,52.83
2024-01-11T21:00:10.525Z,20.60
2024-01-11T21:02:38.617Z,7.63
2024-01-11T21:05:06.802Z,9.18
2024-01-11T21:07:34.674Z,9.30
2024-01-11T21:10:02.749Z,10.00
2024-01-11T21:12:30.626Z,10.77
2024-01-11T21:14:59.864Z,11.73
2024-01-11T21:17:28.241Z,8.55
2024-01-11T21:19:56.248Z,8.57
2024-01-11T21:22:24.163Z,10.25
2024-01-11T21:24:54.063Z,11.77
2024-01-11T21:27:22.215Z,5.03
2024-01-11T21:29:50.237Z,11.05
2024-01-11T21:32:19.320Z,13.20
2024-01-11T21:34:47.284Z,10.23
2024-01-11T21:37:15.156Z,7.77
2024-01-11T21:39:43.058Z,7.25
2024-01-11T21:42:10.929Z,6.10
2024-01-11T21:44:38.861Z,14.50
2024-01-11T21:47:06.889Z,13.95
2024-01-11T21:49:35.343Z,16.08
2024-01-11T21:52:03.816Z,13.23
2024-01-11T21:54:35.745Z,8.02
2024-01-11T21:57:03.690Z,8.45
2024-01-11T21:59:31.694Z,14.45
2024-01-11T22:01:59.582Z,10.53
2024-01-11T22:04:27.385Z,9.88
2024-01-11T22:06:56.389Z,15.43
2024-01-11T22:09:24.429Z,6.47
2024-01-11T22:11:52.197Z,10.05
2024-01-11T22:14:21.405Z,10.95
2024-01-11T22:16:49.812Z,7.13
2024-01-11T22:19:17.980Z,7.72
2024-01-11T22:21:47.175Z,7.15
2024-01-11T22:24:16.939Z,9.75
2024-01-11T22:26:44.826Z,16.20
2024-01-11T22:29:12.702Z,9.38
2024-01-11T22:31:40.565Z,10.55
2024-01-11T22:34:08.646Z,9.20
2024-01-11T22:36:36.514Z,9.15
2024-01-11T22:39:04.441Z,9.95
2024-01-11T22:41:38.931Z,14.93
2024-01-11T22:44:07.097Z,10.73
2024-01-11T22:46:35.549Z,12.48
2024-01-11T22:49:07.616Z,8.38
2024-01-11T22:51:35.548Z,11.77
2024-01-11T22:54:04.727Z,12.23
2024-01-11T22:56:36.245Z,13.52
2024-01-11T22:59:04.514Z,13.43
2024-01-11T23:01:32.616Z,8.95
2024-01-11T23:04:00.565Z,12.23
2024-01-11T23:06:28.609Z,10.17
2024-01-11T23:08:56.519Z,11.45
2024-01-11T23:11:24.411Z,10.10
2024-01-11T23:13:52.317Z,11.43
2024-01-11T23:16:20.236Z,6.23
2024-01-11T23:18:51.347Z,4.38
2024-01-11T23:21:19.381Z,20.38
2024-01-11T23:23:47.205Z,13.87
2024-01-11T23:26:15.247Z,11.15
2024-01-11T23:28:44.118Z,9.07
2024-01-11T23:31:12.790Z,5.03
2024-01-11T23:33:40.809Z,6.85
2024-01-11T23:36:08.932Z,10.73
2024-01-11T23:38:36.825Z,9.75
2024-01-11T23:41:04.838Z,12.90
2024-01-11T23:43:33.198Z,12.38
2024-01-11T23:46:01.074Z,11.80
2024-01-11T23:48:29.150Z,5.17
2024-01-11T23:50:57.241Z,12.38
2024-01-11T23:53:25.194Z,7.18
2024-01-11T23:55:53.082Z,7.20
2024-01-11T23:58:20.904Z,10.38
